LJLJ/LJU METAR and TAF weather

Enter ICAO airport designator
Station Type Date Time Source
LJLJ METAR 2022/11/30 11:30 UTC NOAA

LJLJ 301130Z 30002KT 9999 FEW030 BKN045 04/01 Q1019 NOSIG


Station Type Date Time Source
LJLJ Decoded METAR 2022/11/30 11:30 UTC NOAA

Ljubljana / Brnik, Slovenia (LJLJ) 46-13N 014-29E 362M
Nov 30, 2022 - 06:30 AM EST / 2022.11.30 1130 UTC
Wind: from the WNW (300 degrees) at 2 MPH (2 KT):0
Visibility: greater than 7 mile(s):0
Sky conditions: mostly cloudy
Temperature: 39 F (4 C)
Dew Point: 33 F (1 C)
Relative Humidity: 80%
Pressure (altimeter): 30.09 in. Hg (1019 hPa)
ob: LJLJ 301130Z 30002KT 9999 FEW030 BKN045 04/01 Q1019 NOSIG
cycle: 11

Station Type Date Time Source
LJLJ TAF 2022/11/30 12:06 UTC NOAA

TAF LJLJ 301100Z 3012/0112 VRB02KT 9999 FEW030 BKN040 PROB30
TEMPO 3012/0100 5000 -RA BR PROB30
TEMPO 0100/0112 5000 -RA BR BKN012 OVC025

Example: see airport list